Time;durP1;ratioP1;P1;durP2;ratioP2;P2;SDS_P1;SDS_P2;PMS_P1;PMS_P2;Temp;Humidity;BMP_temperature;BMP_pressure;BME280_temperature;BME280_humidity;BME280_pressure;Samples;Min_cycle;Max_cycle;Signal;HPM_P1;HPM_P2
2023/11/21 00:00:23;;;;;;;;;;;;;;;28.61;72.78;101021.69;5038651;28;69946;-37
2023/11/21 00:02:52;;;;;;;;;;;;;;;28.65;72.74;101009.47;5031723;28;66677;-38
2023/11/21 00:05:23;;;;;;;;;;;;;;;28.68;73.36;101012.59;5038916;28;70510;-36
2023/11/21 00:07:52;;;;;;;;;;;;;;;28.73;73.14;101014.69;5018439;28;66476;-35
2023/11/21 00:10:22;;;;;;;;;;;;;;;28.76;73.31;101019.69;5037820;28;70281;-35
2023/11/21 00:12:54;;;;;;;;;;;;;;;28.77;73.44;101015.94;5035933;28;66644;-35
2023/11/21 00:15:26;;;;;;;;;;;;;;;28.69;73.09;100994.53;5035776;28;71822;-35
2023/11/21 00:17:55;;;;;;;;;;;;;;;28.85;73.87;101021.16;5038048;28;66855;-35
2023/11/21 00:20:25;;;;;;;;;;;;;;;28.85;73.68;101026.56;5037903;28;70611;-36
2023/11/21 00:22:55;;;;;;;;;;;;;;;28.88;73.76;101028.84;5037024;28;66161;-35
2023/11/21 00:25:24;;;;;;;;;;;;;;;28.91;73.10;101027.59;5038613;28;70287;-37
2023/11/21 00:27:54;;;;;;;;;;;;;;;28.92;73.05;101040.91;5036344;28;65961;-37
2023/11/21 00:30:24;;;;;;;;;;;;;;;28.95;72.96;101035.13;5034989;28;70636;-36
2023/11/21 00:32:55;;;;;;;;;;;;;;;28.98;73.23;101038.44;5015321;28;66970;-36
2023/11/21 00:35:26;;;;;;;;;;;;;;;28.98;72.72;101044.69;5027162;28;69993;-37
2023/11/21 00:37:58;;;;;;;;;;;;;;;29.00;73.06;101057.97;5032803;28;65142;-38
2023/11/21 00:40:28;;;;;;;;;;;;;;;29.02;72.95;101047.78;5037348;28;70166;-36
2023/11/21 00:42:57;;;;;;;;;;;;;;;29.05;72.66;101050.94;5038180;28;66952;-35
2023/11/21 00:45:27;;;;;;;;;;;;;;;29.05;72.85;101060.91;5051252;28;71209;-36
2023/11/21 00:47:58;;;;;;;;;;;;;;;29.07;72.38;101064.25;5036965;28;66893;-36
2023/11/21 00:50:27;;;;;;;;;;;;;;;29.10;72.59;101063.84;5049886;28;70539;-36
2023/11/21 00:52:57;;;;;;;;;;;;;;;29.12;72.66;101075.28;5033982;28;65838;-36
2023/11/21 00:55:28;;;;;;;;;;;;;;;29.12;72.95;101070.72;5033552;28;68962;-36
2023/11/21 00:57:58;;;;;;;;;;;;;;;29.14;72.73;101075.91;5035734;28;67032;-35
2023/11/21 01:00:28;;;;;;;;;;;;;;;29.16;70.24;101068.44;5015714;28;69546;-37
2023/11/21 01:02:58;;;;;;;;;;;;;;;29.20;69.34;101069.69;5037999;28;64318;-35
2023/11/21 01:05:28;;;;;;;;;;;;;;;29.23;68.09;101068.47;5039611;28;70008;-37
2023/11/21 01:07:57;;;;;;;;;;;;;;;29.27;67.66;101072.41;5036222;28;66519;-35
2023/11/21 01:10:27;;;;;;;;;;;;;;;29.30;66.95;101069.28;5039465;28;70327;-36
2023/11/21 01:12:57;;;;;;;;;;;;;;;29.32;66.73;101068.03;5039026;28;66997;-37
2023/11/21 01:15:28;;;;;;;;;;;;;;;29.34;66.35;101071.38;5035420;28;69932;-36
2023/11/21 01:17:57;;;;;;;;;;;;;;;29.35;66.20;101067.63;5039354;28;67160;-36
2023/11/21 01:20:27;;;;;;;;;;;;;;;29.37;66.33;101065.56;5020774;28;69274;-36
2023/11/21 01:22:57;;;;;;;;;;;;;;;29.39;66.17;101063.50;5037962;28;66672;-36
2023/11/21 01:25:28;;;;;;;;;;;;;;;29.42;65.47;101069.50;5038135;28;69457;-35
2023/11/21 01:27:58;;;;;;;;;;;;;;;29.43;65.69;101072.00;5029719;28;66370;-36
2023/11/21 01:30:27;;;;;;;;;;;;;;;29.46;65.43;101078.88;5035070;28;69716;-36
2023/11/21 01:32:58;;;;;;;;;;;;;;;29.48;65.47;101071.41;5038372;28;66635;-35
2023/11/21 01:35:28;;;;;;;;;;;;;;;29.49;65.36;101083.88;5037159;28;70769;-35
2023/11/21 01:37:58;;;;;;;;;;;;;;;29.51;64.99;101071.00;5035848;28;65643;-36
2023/11/21 01:40:28;;;;;;;;;;;;;;;29.51;65.00;101071.81;5039066;28;70419;-35
2023/11/21 01:42:58;;;;;;;;;;;;;;;29.54;64.57;101081.38;5038907;28;66209;-36
2023/11/21 01:45:29;;;;;;;;;;;;;;;29.55;64.46;101073.06;5015865;28;70617;-36
2023/11/21 01:48:00;;;;;;;;;;;;;;;29.57;64.93;101064.75;5034349;28;65391;-37
2023/11/21 01:50:31;;;;;;;;;;;;;;;29.59;64.76;101068.91;5038742;28;70373;-36
2023/11/21 01:53:01;;;;;;;;;;;;;;;29.59;64.22;101070.78;5036866;28;66295;-36
2023/11/21 01:55:31;;;;;;;;;;;;;;;29.62;64.13;101067.69;5021052;28;70212;-35
2023/11/21 01:58:01;;;;;;;;;;;;;;;29.64;64.35;101064.78;5037981;28;66621;-35
2023/11/21 02:00:33;;;;;;;;;;;;;;;29.65;64.32;101061.06;5053485;28;70256;-35
2023/11/21 02:03:03;;;;;;;;;;;;;;;29.67;63.92;101062.50;4999749;28;67051;-35
2023/11/21 02:05:33;;;;;;;;;;;;;;;29.68;64.15;101072.28;5051127;28;69502;-35
2023/11/21 02:08:04;;;;;;;;;;;;;;;29.69;64.50;101063.13;5018975;28;66110;-36
2023/11/21 02:10:33;;;;;;;;;;;;;;;29.72;64.16;101064.56;5019157;28;70015;-36
2023/11/21 02:13:03;;;;;;;;;;;;;;;29.73;64.25;101064.38;5035831;28;67055;-35
2023/11/21 02:15:33;;;;;;;;;;;;;;;29.74;63.79;101066.03;5032413;28;69791;-35
2023/11/21 02:18:05;;;;;;;;;;;;;;;29.76;63.69;101061.25;5051557;28;67090;-36
2023/11/21 02:20:38;;;;;;;;;;;;;;;29.79;64.23;101057.31;5022285;28;69762;-35
2023/11/21 02:23:08;;;;;;;;;;;;;;;29.80;63.60;101059.78;5023423;28;66164;-36
2023/11/21 02:25:38;;;;;;;;;;;;;;;29.82;63.62;101049.59;5023933;28;70380;-35
2023/11/21 02:28:07;;;;;;;;;;;;;;;29.84;63.52;101050.22;5037814;28;66123;-36
2023/11/21 02:30:37;;;;;;;;;;;;;;;29.86;63.48;101057.28;5038700;28;70019;-35
2023/11/21 02:33:07;;;;;;;;;;;;;;;29.88;63.76;101061.44;5043355;28;66892;-36
2023/11/21 02:35:37;;;;;;;;;;;;;;;29.90;63.76;101053.13;5039459;28;70805;-35
2023/11/21 02:38:08;;;;;;;;;;;;;;;29.92;63.39;101056.44;5038259;28;66811;-36
2023/11/21 02:40:37;;;;;;;;;;;;;;;29.93;63.45;101050.84;5048128;28;69150;-36
2023/11/21 02:43:07;;;;;;;;;;;;;;;29.95;63.83;101045.19;5002680;28;64892;-36
2023/11/21 02:45:37;;;;;;;;;;;;;;;29.96;63.74;101045.00;5023483;28;70481;-37
2023/11/21 02:48:07;;;;;;;;;;;;;;;29.98;63.70;101036.69;5040764;28;66203;-35
2023/11/21 02:50:37;;;;;;;;;;;;;;;30.01;63.38;101038.97;5038824;28;70705;-36
2023/11/21 02:53:08;;;;;;;;;;;;;;;30.01;63.20;101031.69;5041477;28;65397;-35
2023/11/21 02:55:37;;;;;;;;;;;;;;;30.03;63.20;101032.31;5041353;28;70369;-37
2023/11/21 02:58:07;;;;;;;;;;;;;;;30.05;62.99;101035.63;5039650;28;66236;-36
2023/11/21 03:00:37;;;;;;;;;;;;;;;30.07;63.48;101038.13;5038510;28;69121;-36
2023/11/21 03:03:06;;;;;;;;;;;;;;;30.08;63.22;101028.97;5040380;28;66768;-36
2023/11/21 03:05:37;;;;;;;;;;;;;;;30.11;62.80;101033.94;5037434;28;70420;-38
2023/11/21 03:08:07;;;;;;;;;;;;;;;30.12;62.79;101030.22;5038557;28;67118;-35
2023/11/21 03:10:37;;;;;;;;;;;;;;;30.14;63.03;101032.69;5038848;28;69432;-36
2023/11/21 03:13:07;;;;;;;;;;;;;;;30.15;63.12;101021.66;5033795;28;66795;-35
2023/11/21 03:15:37;;;;;;;;;;;;;;;30.16;63.36;101020.63;5039443;28;70488;-35
2023/11/21 03:18:06;;;;;;;;;;;;;;;30.19;62.82;101025.59;5041561;28;66190;-36
2023/11/21 03:20:36;;;;;;;;;;;;;;;30.20;62.83;101021.88;5038448;28;69767;-35
2023/11/21 03:23:05;;;;;;;;;;;;;;;30.22;62.53;101019.78;5041820;28;65555;-35
2023/11/21 03:25:35;;;;;;;;;;;;;;;30.24;62.40;101006.88;5039638;28;70682;-36
2023/11/21 03:28:04;;;;;;;;;;;;;;;30.25;62.41;101013.13;5022024;28;66794;-35
2023/11/21 03:30:34;;;;;;;;;;;;;;;30.27;62.49;101008.34;5039706;28;69855;-36
2023/11/21 03:33:04;;;;;;;;;;;;;;;30.30;62.89;101009.78;5020608;28;66652;-37
2023/11/21 03:35:35;;;;;;;;;;;;;;;30.30;62.56;100994.38;5019515;28;69839;-36
2023/11/21 03:38:04;;;;;;;;;;;;;;;30.33;62.31;101001.25;5020331;28;65448;-35
2023/11/21 03:40:35;;;;;;;;;;;;;;;30.34;62.31;100994.78;5010140;28;69630;-35
2023/11/21 03:43:05;;;;;;;;;;;;;;;30.36;62.59;100987.28;5018386;28;66945;-36
2023/11/21 03:45:35;;;;;;;;;;;;;;;30.37;62.42;100988.94;5021606;28;70491;-35
2023/11/21 03:48:05;;;;;;;;;;;;;;;30.40;62.25;100985.81;5020332;28;66975;-35
2023/11/21 03:50:37;;;;;;;;;;;;;;;30.42;62.33;100981.00;5002123;28;69470;-35
2023/11/21 03:53:07;;;;;;;;;;;;;;;30.44;62.23;100965.38;5020235;28;66111;-36
2023/11/21 03:55:37;;;;;;;;;;;;;;;30.46;62.36;100966.00;5021297;28;69910;-35
2023/11/21 03:58:07;;;;;;;;;;;;;;;30.47;61.80;100956.84;5019553;28;65103;-36
2023/11/21 04:00:36;;;;;;;;;;;;;;;30.49;62.03;100946.63;5020404;28;69797;-36
2023/11/21 04:03:06;;;;;;;;;;;;;;;30.50;62.18;100934.75;5020594;28;66275;-36
2023/11/21 04:05:36;;;;;;;;;;;;;;;30.53;61.91;100937.00;5019163;28;70454;-36
2023/11/21 04:08:05;;;;;;;;;;;;;;;30.54;61.94;100930.56;5021239;28;65767;-36
2023/11/21 04:10:35;;;;;;;;;;;;;;;30.56;62.05;100923.03;5020533;28;70235;-35
2023/11/21 04:13:06;;;;;;;;;;;;;;;30.58;61.76;100930.97;5018541;28;66027;-36
2023/11/21 04:15:35;;;;;;;;;;;;;;;30.60;62.17;100923.47;5008300;28;70566;-35
2023/11/21 04:18:05;;;;;;;;;;;;;;;30.61;62.14;100925.94;5019555;28;66211;-36
2023/11/21 04:20:35;;;;;;;;;;;;;;;30.63;61.58;100923.84;5017357;28;70292;-36
2023/11/21 04:23:04;;;;;;;;;;;;;;;30.64;61.93;100911.97;5019514;28;67358;-36
2023/11/21 04:25:34;;;;;;;;;;;;;;;30.66;61.77;100901.75;5020121;28;69544;-36
2023/11/21 04:28:04;;;;;;;;;;;;;;;30.68;61.77;100893.41;5032331;28;66062;-38
2023/11/21 04:30:34;;;;;;;;;;;;;;;30.70;61.84;100896.72;5019578;28;70914;-36
2023/11/21 04:33:03;;;;;;;;;;;;;;;30.72;61.50;100890.03;5039653;28;67857;-37
2023/11/21 04:35:35;;;;;;;;;;;;;;;30.73;61.85;100886.28;5026211;28;70546;-35
2023/11/21 04:38:04;;;;;;;;;;;;;;;30.75;61.64;100879.81;5039706;28;65989;-35
2023/11/21 04:40:34;;;;;;;;;;;;;;;30.76;61.84;100876.06;5055355;28;70035;-36
2023/11/21 04:43:04;;;;;;;;;;;;;;;30.78;61.43;100872.06;5036138;28;65213;-36
2023/11/21 04:45:37;;;;;;;;;;;;;;;30.80;61.70;100861.06;5039999;28;70755;-37
2023/11/21 04:48:08;;;;;;;;;;;;;;;30.81;61.26;100858.13;5038331;28;66993;-36
2023/11/21 04:50:38;;;;;;;;;;;;;;;30.83;61.74;100852.50;5037029;28;70012;-35
2023/11/21 04:53:08;;;;;;;;;;;;;;;30.85;61.57;100861.25;5039000;28;66595;-36
2023/11/21 04:55:37;;;;;;;;;;;;;;;30.86;61.40;100857.47;5039679;28;70144;-36
2023/11/21 04:58:08;;;;;;;;;;;;;;;30.88;61.14;100845.38;5038114;28;66903;-36
2023/11/21 05:00:37;;;;;;;;;;;;;;;30.89;61.53;100847.03;5037419;28;70404;-37
2023/11/21 05:03:07;;;;;;;;;;;;;;;30.91;61.29;100833.28;5039269;28;65455;-36
2023/11/21 05:05:37;;;;;;;;;;;;;;;30.93;61.04;100837.41;5037776;28;69804;-35
2023/11/21 05:08:08;;;;;;;;;;;;;;;30.93;61.28;100825.75;5039288;28;67013;-35
2023/11/21 05:10:39;;;;;;;;;;;;;;;30.96;61.29;100828.03;5035481;28;70390;-36
2023/11/21 05:13:10;;;;;;;;;;;;;;;30.98;61.26;100823.22;5038380;28;67489;-36
2023/11/21 05:15:41;;;;;;;;;;;;;;;31.00;61.18;100820.28;5039798;28;69670;-39
2023/11/21 05:18:11;;;;;;;;;;;;;;;31.01;61.31;100820.06;5038629;28;66889;-38
2023/11/21 05:20:42;;;;;;;;;;;;;;;31.03;61.22;100820.66;5037655;28;70179;-36
2023/11/21 05:23:11;;;;;;;;;;;;;;;31.05;61.05;100801.47;5038553;28;66989;-37
2023/11/21 05:25:41;;;;;;;;;;;;;;;31.06;60.79;100798.53;5036603;28;70862;-35
2023/11/21 05:28:11;;;;;;;;;;;;;;;31.09;60.68;100787.25;5035613;28;65527;-35
2023/11/21 05:30:41;;;;;;;;;;;;;;;31.11;60.79;100785.13;5019830;28;70158;-37
2023/11/21 05:33:11;;;;;;;;;;;;;;;31.12;60.87;100778.69;5015657;28;65801;-37
2023/11/21 05:35:41;;;;;;;;;;;;;;;31.14;60.53;100773.84;5017619;28;70302;-36
2023/11/21 05:38:11;;;;;;;;;;;;;;;31.16;60.68;100760.91;5017622;28;64961;-36
2023/11/21 05:40:41;;;;;;;;;;;;;;;31.19;60.49;100758.81;5018339;28;70088;-35
2023/11/21 05:43:11;;;;;;;;;;;;;;;31.20;60.70;100745.03;5000327;28;66851;-37
2023/11/21 05:45:41;;;;;;;;;;;;;;;31.23;60.55;100751.88;5018696;28;69735;-37
2023/11/21 05:48:11;;;;;;;;;;;;;;;31.25;60.65;100752.47;5018498;28;66251;-37
2023/11/21 05:50:41;;;;;;;;;;;;;;;31.26;60.75;100743.28;5018496;28;70900;-36
2023/11/21 05:53:11;;;;;;;;;;;;;;;31.27;60.56;100734.94;5018424;28;66546;-36
2023/11/21 05:55:41;;;;;;;;;;;;;;;31.29;60.36;100732.84;5020317;28;70694;-35
2023/11/21 05:58:10;;;;;;;;;;;;;;;31.31;60.41;100728.00;5022242;28;67201;-36
2023/11/21 06:00:53;;;;;;;;;;;;;;;31.33;60.38;100722.38;5004445;28;68444;-35
2023/11/21 06:03:23;;;;;;;;;;;;;;;31.35;60.48;100714.84;5019687;28;66280;-38
2023/11/21 06:05:52;;;;;;;;;;;;;;;31.36;60.10;100711.09;5022321;28;69952;-35
2023/11/21 06:08:22;;;;;;;;;;;;;;;31.38;60.10;100709.00;5022084;28;66812;-36
2023/11/21 06:10:51;;;;;;;;;;;;;;;31.39;60.19;100706.03;5010208;28;69208;-35
2023/11/21 06:13:24;;;;;;;;;;;;;;;31.41;60.01;100691.47;5020044;28;66586;-34
2023/11/21 06:15:55;;;;;;;;;;;;;;;31.42;60.00;100688.50;5013688;28;70629;-36
2023/11/21 06:18:24;;;;;;;;;;;;;;;31.44;59.91;100686.41;5020952;28;66325;-35
2023/11/21 06:20:54;;;;;;;;;;;;;;;31.46;60.21;100684.28;5022887;28;70373;-35
2023/11/21 06:23:23;;;;;;;;;;;;;;;31.49;59.62;100678.41;5022022;28;66068;-35
2023/11/21 06:25:53;;;;;;;;;;;;;;;31.50;59.89;100674.63;5019740;28;70697;-36
2023/11/21 06:28:22;;;;;;;;;;;;;;;31.53;59.99;100676.06;5021902;28;67128;-36
2023/11/21 06:30:53;;;;;;;;;;;;;;;31.55;59.98;100672.06;5019138;28;69687;-36
2023/11/21 06:33:22;;;;;;;;;;;;;;;31.57;59.74;100669.13;5041170;28;66683;-35
2023/11/21 06:35:52;;;;;;;;;;;;;;;31.58;59.48;100666.19;5042409;28;69166;-36
2023/11/21 06:38:21;;;;;;;;;;;;;;;31.61;59.65;100665.72;5042337;28;65743;-38
2023/11/21 06:40:51;;;;;;;;;;;;;;;31.63;59.47;100654.66;5040585;28;70437;-35
2023/11/21 06:43:22;;;;;;;;;;;;;;;31.65;59.40;100654.41;5041593;28;67059;-36
2023/11/21 06:45:52;;;;;;;;;;;;;;;31.67;59.32;100663.13;5041797;28;70938;-37
2023/11/21 06:48:22;;;;;;;;;;;;;;;31.69;59.44;100658.31;5040882;28;67160;-35
2023/11/21 06:50:52;;;;;;;;;;;;;;;31.70;59.26;100651.81;5046471;28;69678;-36
2023/11/21 06:53:22;;;;;;;;;;;;;;;31.73;59.32;100641.38;5037463;28;64868;-36
2023/11/21 06:55:51;;;;;;;;;;;;;;;31.75;59.16;100639.22;5040547;28;70510;-36
2023/11/21 06:58:21;;;;;;;;;;;;;;;31.77;59.15;100625.44;5042793;28;66586;-36
2023/11/21 07:00:52;;;;;;;;;;;;;;;31.80;59.04;100624.97;5041183;28;69939;-36
2023/11/21 07:03:24;;;;;;;;;;;;;;;31.82;59.09;100628.28;5038417;28;66505;-35
2023/11/21 07:05:53;;;;;;;;;;;;;;;31.85;58.90;100625.13;5038658;28;69854;-36
2023/11/21 07:08:23;;;;;;;;;;;;;;;31.87;58.97;100622.97;5042062;28;66304;-36
2023/11/21 07:10:53;;;;;;;;;;;;;;;31.90;58.93;100630.66;5041823;28;69511;-35
2023/11/21 07:13:22;;;;;;;;;;;;;;;31.93;58.88;100618.53;5030283;28;66205;-35
2023/11/21 07:15:52;;;;;;;;;;;;;;;31.95;58.91;100622.66;5040637;28;69483;-35
2023/11/21 07:18:22;;;;;;;;;;;;;;;31.97;58.83;100604.28;5040838;28;66077;-34
2023/11/21 07:20:52;;;;;;;;;;;;;;;32.00;58.99;100597.56;5023148;28;70310;-35
2023/11/21 07:23:22;;;;;;;;;;;;;;;32.03;58.80;100599.78;5015114;28;65786;-36
2023/11/21 07:25:52;;;;;;;;;;;;;;;32.05;58.67;100595.78;5040660;28;70617;-36
2023/11/21 07:28:22;;;;;;;;;;;;;;;32.09;58.71;100595.31;5041917;28;65670;-36
2023/11/21 07:30:52;;;;;;;;;;;;;;;32.09;58.65;100595.31;5037971;28;70788;-36
2023/11/21 07:33:22;;;;;;;;;;;;;;;32.13;58.69;100597.34;5040465;28;65963;-36
2023/11/21 07:35:52;;;;;;;;;;;;;;;32.16;58.38;100596.03;5041554;28;70602;-36
2023/11/21 07:38:21;;;;;;;;;;;;;;;32.18;58.19;100591.19;5040879;28;66596;-34
2023/11/21 07:40:51;;;;;;;;;;;;;;;32.20;58.35;100597.19;5041597;28;70459;-36
2023/11/21 07:43:22;;;;;;;;;;;;;;;32.22;58.27;100593.19;5022478;28;67031;-36
2023/11/21 07:45:52;;;;;;;;;;;;;;;32.23;58.17;100592.16;5023105;28;70796;-36
2023/11/21 07:48:22;;;;;;;;;;;;;;;32.26;57.93;100585.41;5040108;28;66527;-36
2023/11/21 07:50:51;;;;;;;;;;;;;;;32.21;58.09;100571.75;5040205;28;69779;-36
2023/11/21 07:53:21;;;;;;;;;;;;;;;32.28;58.05;100578.66;5039469;28;66455;-36
2023/11/21 07:55:52;;;;;;;;;;;;;;;32.31;57.85;100577.38;5022619;28;70231;-35
2023/11/21 07:58:21;;;;;;;;;;;;;;;32.33;57.77;100577.97;5040064;28;66828;-35
2023/11/21 08:00:51;;;;;;;;;;;;;;;32.35;57.81;100578.56;5039353;28;70323;-35
2023/11/21 08:03:21;;;;;;;;;;;;;;;32.37;57.92;100571.00;5040264;28;66341;-35
2023/11/21 08:05:51;;;;;;;;;;;;;;;32.39;57.49;100574.28;5041019;28;69719;-35
2023/11/21 08:08:21;;;;;;;;;;;;;;;32.40;57.39;100575.97;5040025;28;66509;-35
2023/11/21 08:10:56;;;;;;;;;;;;;;;32.41;57.42;100572.19;5040181;28;70696;-35
2023/11/21 08:13:27;;;;;;;;;;;;;;;32.43;57.72;100574.63;5040134;28;67051;-35
2023/11/21 08:16:05;;;;;;;;;;;;;;;32.44;57.22;100577.13;5037889;28;70603;-35
2023/11/21 08:18:35;;;;;;;;;;;;;;;32.46;57.72;100569.63;5039064;28;67144;-35
2023/11/21 08:21:05;;;;;;;;;;;;;;;32.47;57.45;100571.25;5040104;28;70070;-36
2023/11/21 08:23:34;;;;;;;;;;;;;;;32.49;57.21;100574.56;5037841;28;66165;-35
2023/11/21 08:26:05;;;;;;;;;;;;;;;32.49;57.06;100580.00;5039259;28;69517;-36
2023/11/21 08:28:35;;;;;;;;;;;;;;;32.52;57.40;100577.88;5037514;28;65136;-36
2023/11/21 08:31:04;;;;;;;;;;;;;;;32.52;57.54;100586.84;5035866;28;69734;-35
2023/11/21 08:33:34;;;;;;;;;;;;;;;32.53;57.24;100579.50;5038065;28;66019;-35
2023/11/21 08:36:07;;;;;;;;;;;;;;;32.54;57.22;100586.59;5038557;28;70388;-36
2023/11/21 08:38:37;;;;;;;;;;;;;;;32.55;57.10;100588.25;5037497;28;65414;-35
2023/11/21 08:41:07;;;;;;;;;;;;;;;32.56;57.41;100579.84;5038026;28;70349;-36
2023/11/21 08:43:39;;;;;;;;;;;;;;;32.57;57.20;100596.97;5019770;28;66484;-35
2023/11/21 08:46:09;;;;;;;;;;;;;;;32.57;57.04;100589.66;5038172;28;69305;-35
2023/11/21 08:48:40;;;;;;;;;;;;;;;32.59;57.14;100583.97;5039296;28;67213;-35
2023/11/21 08:51:17;;;;;;;;;;;;;;;32.60;57.21;100591.09;5038189;28;70281;-35
2023/11/21 08:53:47;;;;;;;;;;;;;;;32.60;57.13;100585.66;5039532;28;65692;-37
2023/11/21 08:56:18;;;;;;;;;;;;;;;32.62;57.26;100583.50;5039532;28;70776;-35
2023/11/21 08:58:50;;;;;;;;;;;;;;;32.62;56.93;100594.34;5037441;28;66090;-36
2023/11/21 09:01:20;;;;;;;;;;;;;;;32.62;57.08;100592.47;5040492;28;70395;-36
2023/11/21 09:03:50;;;;;;;;;;;;;;;32.63;57.25;100590.59;5010561;28;66902;-35
2023/11/21 09:06:19;;;;;;;;;;;;;;;32.64;57.12;100587.63;5013036;28;70020;-36
2023/11/21 09:08:49;;;;;;;;;;;;;;;32.66;57.24;100595.56;5038529;28;65343;-34
2023/11/21 09:11:19;;;;;;;;;;;;;;;32.66;57.23;100595.56;5021653;28;70252;-35
2023/11/21 09:13:49;;;;;;;;;;;;;;;32.67;57.25;100597.19;5037301;28;65939;-36
2023/11/21 09:16:18;;;;;;;;;;;;;;;32.67;57.17;100608.06;5031237;28;69654;-37
2023/11/21 09:18:48;;;;;;;;;;;;;;;32.68;57.23;100606.97;5034346;28;65451;-35
2023/11/21 09:21:17;;;;;;;;;;;;;;;32.67;57.17;100608.88;5037927;28;70598;-35
2023/11/21 09:23:48;;;;;;;;;;;;;;;32.39;59.45;100615.00;5039000;28;65373;-37
2023/11/21 09:26:18;;;;;;;;;;;;;;;32.18;60.79;100610.16;5039052;28;70031;-37
2023/11/21 09:28:47;;;;;;;;;;;;;;;32.02;61.88;100628.81;5035738;28;67709;-37
2023/11/21 09:31:17;;;;;;;;;;;;;;;31.97;62.60;100628.69;5038449;28;70909;-36
2023/11/21 09:33:48;;;;;;;;;;;;;;;31.93;62.77;100632.94;5039001;28;66940;-36
2023/11/21 09:36:18;;;;;;;;;;;;;;;31.92;63.02;100636.69;5019358;28;70505;-35
2023/11/21 09:38:49;;;;;;;;;;;;;;;31.89;63.49;100645.28;5038328;28;67108;-35
2023/11/21 09:41:23;;;;;;;;;;;;;;;31.88;63.77;100643.63;5038260;28;69851;-36
2023/11/21 09:43:55;;;;;;;;;;;;;;;31.88;63.69;100648.22;5018526;28;65799;-36
2023/11/21 09:46:28;;;;;;;;;;;;;;;31.86;64.11;100659.31;5030342;28;70005;-37
2023/11/21 09:49:01;;;;;;;;;;;;;;;31.88;64.77;100670.75;5036849;28;67018;-36
2023/11/21 09:51:33;;;;;;;;;;;;;;;31.86;64.97;100667.44;5036707;28;70889;-37
2023/11/21 09:54:06;;;;;;;;;;;;;;;31.83;64.95;100674.16;5037262;28;66790;-37
2023/11/21 09:56:38;;;;;;;;;;;;;;;31.85;65.26;100682.06;5035537;28;69972;-36
2023/11/21 09:59:10;;;;;;;;;;;;;;;31.84;65.20;100677.69;5037695;28;66456;-35
2023/11/21 10:01:40;;;;;;;;;;;;;;;31.82;65.15;100682.53;5035327;28;70250;-36
2023/11/21 10:04:11;;;;;;;;;;;;;;;31.79;65.48;100688.44;5034249;28;68013;-36
2023/11/21 10:06:41;;;;;;;;;;;;;;;31.81;65.50;100691.72;5035065;28;68921;-35
2023/11/21 10:09:11;;;;;;;;;;;;;;;31.82;65.65;100701.53;5034530;28;65326;-36
2023/11/21 10:11:41;;;;;;;;;;;;;;;31.83;65.84;100703.16;5034346;28;70300;-37
2023/11/21 10:14:14;;;;;;;;;;;;;;;31.85;65.83;100697.53;5035188;28;67709;-38
2023/11/21 10:16:48;;;;;;;;;;;;;;;31.81;65.96;100697.97;5032070;28;69705;-36
2023/11/21 10:19:18;;;;;;;;;;;;;;;31.82;66.15;100693.38;5036435;28;66400;-38
2023/11/21 10:21:48;;;;;;;;;;;;;;;31.82;66.19;100693.38;5038013;28;70260;-36
2023/11/21 10:24:18;;;;;;;;;;;;;;;31.55;66.05;100652.25;5035502;28;66280;-36
2023/11/21 10:26:48;;;;;;;;;;;;;;;31.80;66.34;100698.22;5036350;28;70372;-37
2023/11/21 10:29:21;;;;;;;;;;;;;;;31.77;66.49;100695.97;5038763;28;66733;-37
2023/11/21 10:31:51;;;;;;;;;;;;;;;31.77;66.35;100691.34;5014053;28;70432;-36
2023/11/21 10:34:21;;;;;;;;;;;;;;;31.78;66.34;100697.59;5018710;28;66948;-36
2023/11/21 10:36:51;;;;;;;;;;;;;;;31.79;66.41;100700.09;5016274;28;69753;-37
2023/11/21 10:39:23;;;;;;;;;;;;;;;31.80;66.68;100700.91;5018004;28;66050;-37
2023/11/21 10:41:54;;;;;;;;;;;;;;;31.80;66.69;100706.34;5021692;28;69731;-35
2023/11/21 10:44:26;;;;;;;;;;;;;;;31.78;66.86;100708.44;5019529;28;66922;-36
2023/11/21 10:46:57;;;;;;;;;;;;;;;31.77;66.89;100715.75;5019988;28;70088;-36
2023/11/21 10:49:27;;;;;;;;;;;;;;;31.79;66.70;100720.97;5004628;28;65361;-35
2023/11/21 10:51:57;;;;;;;;;;;;;;;31.76;66.93;100729.53;5021829;28;70349;-36
2023/11/21 10:54:26;;;;;;;;;;;;;;;31.78;66.88;100727.44;5022137;28;65771;-37
2023/11/21 10:56:58;;;;;;;;;;;;;;;31.76;67.23;100737.69;5020568;28;69681;-37
2023/11/21 10:59:31;;;;;;;;;;;;;;;31.96;66.23;100738.28;5018752;28;66956;-36
2023/11/21 11:02:08;;;;;;;;;;;;;;;32.09;65.53;100742.66;5012083;28;70003;-41
2023/11/21 11:04:38;;;;;;;;;;;;;;;32.20;64.89;100755.44;5015295;28;66095;-36
2023/11/21 11:07:11;;;;;;;;;;;;;;;32.26;64.81;100759.09;5018508;28;70623;-36
2023/11/21 11:09:44;;;;;;;;;;;;;;;32.30;64.60;100757.59;5022917;28;66604;-36
2023/11/21 11:12:14;;;;;;;;;;;;;;;32.34;64.55;100757.94;5020780;28;69946;-36
2023/11/21 11:14:44;;;;;;;;;;;;;;;32.35;64.55;100763.16;5012156;28;66449;-36
2023/11/21 11:17:14;;;;;;;;;;;;;;;32.37;64.18;100763.72;5017965;28;70037;-37
2023/11/21 11:19:44;;;;;;;;;;;;;;;32.40;64.43;100776.84;5033868;28;66190;-36
2023/11/21 11:22:17;;;;;;;;;;;;;;;32.41;64.20;100778.50;5016004;28;72651;-36
2023/11/21 11:25:02;;;;;;;;;;;;;;;32.43;64.17;100779.09;5006663;28;66605;-36
2023/11/21 11:27:38;;;;;;;;;;;;;;;32.44;63.96;100783.47;5016325;28;69148;-35
2023/11/21 11:30:07;;;;;;;;;;;;;;;32.44;63.92;100783.47;5017721;28;67055;-36
2023/11/21 11:32:43;;;;;;;;;;;;;;;32.43;63.78;100779.09;5030396;28;70083;-36
2023/11/21 11:35:17;;;;;;;;;;;;;;;32.45;63.89;100778.84;5037230;28;65833;-36
2023/11/21 11:37:47;;;;;;;;;;;;;;;32.44;63.78;100782.63;5029438;28;70479;-35
2023/11/21 11:40:19;;;;;;;;;;;;;;;32.43;63.87;100787.25;5029519;28;66398;-36
2023/11/21 11:43:04;;;;;;;;;;;;;;;32.44;64.14;100793.50;5033699;28;70760;-35
2023/11/21 11:45:41;;;;;;;;;;;;;;;32.43;64.21;100792.69;5037202;28;66362;-37
2023/11/21 11:48:14;;;;;;;;;;;;;;;32.42;63.88;100801.88;5043037;28;70723;-38
2023/11/21 11:51:03;;;;;;;;;;;;;;;32.44;64.00;100809.78;5041403;28;67137;-36
2023/11/21 11:53:36;;;;;;;;;;;;;;;32.43;64.06;100814.41;5042139;28;68605;-38
2023/11/21 11:56:30;;;;;;;;;;;;;;;32.43;64.00;100819.81;5043560;28;66719;-37
2023/11/21 11:59:02;;;;;;;;;;;;;;;32.42;63.95;100823.59;5035700;28;70551;-37
2023/11/21 12:01:33;;;;;;;;;;;;;;;32.41;64.00;100827.38;5041265;28;66116;-37
2023/11/21 12:04:22;;;;;;;;;;;;;;;32.40;63.80;100842.00;5042691;28;70561;-37
2023/11/21 12:06:53;;;;;;;;;;;;;;;32.37;63.76;100847.88;5042506;28;66891;-36
2023/11/21 12:09:23;;;;;;;;;;;;;;;32.38;63.87;100849.56;5041379;28;69814;-36
2023/11/21 12:11:54;;;;;;;;;;;;;;;32.36;63.57;100850.84;5042651;28;66229;-37
2023/11/21 12:14:25;;;;;;;;;;;;;;;32.34;63.52;100856.50;5042295;28;70017;-37
2023/11/21 12:16:55;;;;;;;;;;;;;;;32.34;63.77;100858.38;5041760;28;66879;-37
2023/11/21 12:19:25;;;;;;;;;;;;;;;32.18;64.67;100868.84;5041617;28;69806;-38
2023/11/21 12:21:56;;;;;;;;;;;;;;;31.95;66.65;100872.25;5041545;28;66876;-39
2023/11/21 12:24:28;;;;;;;;;;;;;;;31.84;67.81;100870.28;5041531;28;70718;-38
2023/11/21 12:26:58;;;;;;;;;;;;;;;31.76;68.31;100874.13;5052594;28;66092;-38
2023/11/21 12:29:29;;;;;;;;;;;;;;;31.73;68.46;100879.16;5040708;28;70324;-37
2023/11/21 12:31:59;;;;;;;;;;;;;;;31.66;69.51;100881.16;5041921;28;66282;-39
2023/11/21 12:34:30;;;;;;;;;;;;;;;31.67;70.06;100891.75;5041133;28;67956;-37
2023/11/21 12:37:01;;;;;;;;;;;;;;;31.69;70.48;100899.66;5038876;28;66585;-38
2023/11/21 12:39:30;;;;;;;;;;;;;;;31.66;71.01;100900.13;5040356;28;70153;-37
2023/11/21 12:42:00;;;;;;;;;;;;;;;31.65;71.26;100893.88;5036315;28;66299;-37
2023/11/21 12:44:30;;;;;;;;;;;;;;;31.65;71.42;100898.44;5040025;28;70098;-37
2023/11/21 12:47:01;;;;;;;;;;;;;;;31.67;71.87;100896.34;5041842;28;67417;-38
2023/11/21 12:49:32;;;;;;;;;;;;;;;31.66;71.75;100902.84;5040580;28;70344;-38
2023/11/21 12:52:03;;;;;;;;;;;;;;;31.64;71.77;100907.66;5026354;28;65516;-38